Time;durP1;ratioP1;P1;durP2;ratioP2;P2;SDS_P1;SDS_P2;PMS_P1;PMS_P2;Temp;Humidity;BMP_temperature;BMP_pressure;BME280_temperature;BME280_humidity;BME280_pressure;Samples;Min_cycle;Max_cycle;Signal;HPM_P1;HPM_P2
2023/01/25 00:00:09;;;;;;;10.05;6.60;;;;;;;;;;5016052;28;20181;-49
2023/01/25 00:02:35;;;;;;;9.95;6.72;;;;;;;;;;5013462;28;20185;-49
2023/01/25 00:05:01;;;;;;;11.40;6.53;;;;;;;;;;5010465;28;20208;-49
2023/01/25 00:07:27;;;;;;;10.93;6.43;;;;;;;;;;5015422;28;20611;-49
2023/01/25 00:09:52;;;;;;;10.13;6.72;;;;;;;;;;5015180;28;20261;-49
2023/01/25 00:12:18;;;;;;;10.80;6.03;;;;;;;;;;5014589;28;20208;-50
2023/01/25 00:14:44;;;;;;;10.65;6.72;;;;;;;;;;5014637;28;20191;-50
2023/01/25 00:17:10;;;;;;;11.10;6.85;;;;;;;;;;5015243;28;20184;-50
2023/01/25 00:19:36;;;;;;;11.60;6.65;;;;;;;;;;5008532;28;20192;-50
2023/01/25 00:22:02;;;;;;;13.77;7.10;;;;;;;;;;5014462;28;20223;-49
2023/01/25 00:24:28;;;;;;;9.45;6.55;;;;;;;;;;5024878;28;20172;-49
2023/01/25 00:26:54;;;;;;;12.43;6.85;;;;;;;;;;5008635;28;20219;-49
2023/01/25 00:29:20;;;;;;;9.50;6.30;;;;;;;;;;5015230;28;20256;-49
2023/01/25 00:31:54;;;;;;;9.27;6.40;;;;;;;;;;5014575;28;20207;-49
2023/01/25 00:34:22;;;;;;;7.72;5.97;;;;;;;;;;5008315;28;20255;-50
2023/01/25 00:36:55;;;;;;;9.23;5.93;;;;;;;;;;5009304;28;20682;-49
2023/01/25 00:39:22;;;;;;;9.95;6.82;;;;;;;;;;5008046;28;20176;-49
2023/01/25 00:41:48;;;;;;;9.60;6.22;;;;;;;;;;5011195;28;20184;-49
2023/01/25 00:44:13;;;;;;;9.10;5.90;;;;;;;;;;5015042;28;20493;-49
2023/01/25 00:46:39;;;;;;;9.55;5.90;;;;;;;;;;5015268;28;20181;-49
2023/01/25 00:49:06;;;;;;;7.53;5.80;;;;;;;;;;5015396;28;20188;-49
2023/01/25 00:51:32;;;;;;;8.00;5.53;;;;;;;;;;5014549;28;20212;-50
2023/01/25 00:53:58;;;;;;;10.40;6.40;;;;;;;;;;5014261;28;20184;-50
2023/01/25 00:56:24;;;;;;;9.50;6.22;;;;;;;;;;5009379;28;20275;-50
2023/01/25 00:58:50;;;;;;;9.25;5.97;;;;;;;;;;5014923;28;20187;-50
2023/01/25 01:01:15;;;;;;;8.32;5.47;;;;;;;;;;5014420;28;20586;-50
2023/01/25 01:03:41;;;;;;;9.18;5.60;;;;;;;;;;5014490;28;20183;-49
2023/01/25 01:06:08;;;;;;;8.27;5.85;;;;;;;;;;5007406;28;20470;-49
2023/01/25 01:08:35;;;;;;;9.05;6.18;;;;;;;;;;5014599;28;20627;-50
2023/01/25 01:11:02;;;;;;;9.75;5.97;;;;;;;;;;5007712;28;20209;-50
2023/01/25 01:13:28;;;;;;;7.05;5.55;;;;;;;;;;5008635;28;20446;-49
2023/01/25 01:15:54;;;;;;;8.25;6.05;;;;;;;;;;5007017;28;20209;-50
2023/01/25 01:18:20;;;;;;;8.30;5.55;;;;;;;;;;5007288;28;20181;-49
2023/01/25 01:20:50;;;;;;;9.27;6.18;;;;;;;;;;5009487;28;20188;-49
2023/01/25 01:23:16;;;;;;;6.90;5.35;;;;;;;;;;5014294;28;20176;-49
2023/01/25 01:25:42;;;;;;;8.32;5.43;;;;;;;;;;5012311;28;20611;-50
2023/01/25 01:28:08;;;;;;;7.88;5.72;;;;;;;;;;5003713;28;20181;-49
2023/01/25 01:30:34;;;;;;;8.10;5.20;;;;;;;;;;5006990;28;20291;-49
2023/01/25 01:33:00;;;;;;;7.18;5.65;;;;;;;;;;5010485;28;20540;-49
2023/01/25 01:35:25;;;;;;;8.75;5.72;;;;;;;;;;5008045;28;20185;-49
2023/01/25 01:37:51;;;;;;;7.93;5.82;;;;;;;;;;5013767;28;20191;-49
2023/01/25 01:40:17;;;;;;;8.95;5.72;;;;;;;;;;5015162;28;20173;-49
2023/01/25 01:42:57;;;;;;;9.15;5.68;;;;;;;;;;5007989;28;20264;-49
2023/01/25 01:45:42;;;;;;;6.80;5.20;;;;;;;;;;5013338;28;20290;-49
2023/01/25 01:48:15;;;;;;;8.07;5.70;;;;;;;;;;5014347;28;20254;-49
2023/01/25 01:50:41;;;;;;;7.35;5.28;;;;;;;;;;5012435;28;20215;-50
2023/01/25 01:53:07;;;;;;;7.85;5.35;;;;;;;;;;5005282;28;20185;-49
2023/01/25 01:55:33;;;;;;;7.18;5.05;;;;;;;;;;5007775;28;20184;-49
2023/01/25 01:57:59;;;;;;;8.15;5.70;;;;;;;;;;5013837;28;20503;-49
2023/01/25 02:00:28;;;;;;;10.02;5.70;;;;;;;;;;5012957;28;20180;-50
2023/01/25 02:02:55;;;;;;;7.25;4.75;;;;;;;;;;5014225;28;20548;-50
2023/01/25 02:05:30;;;;;;;7.22;4.72;;;;;;;;;;5008443;28;20646;-49
2023/01/25 02:07:56;;;;;;;5.88;4.85;;;;;;;;;;5005337;28;20188;-50
2023/01/25 02:10:24;;;;;;;8.60;5.65;;;;;;;;;;5011382;28;20603;-50
2023/01/25 02:12:50;;;;;;;7.15;5.30;;;;;;;;;;5013123;28;20216;-49
2023/01/25 02:15:16;;;;;;;7.03;5.40;;;;;;;;;;5005152;28;20195;-49
2023/01/25 02:17:42;;;;;;;6.28;4.97;;;;;;;;;;5011690;28;20180;-49
2023/01/25 02:20:24;;;;;;;6.75;5.35;;;;;;;;;;5008985;28;20224;-49
2023/01/25 02:22:59;;;;;;;7.18;5.30;;;;;;;;;;5008761;28;20184;-49
2023/01/25 02:25:26;;;;;;;6.68;5.10;;;;;;;;;;5010921;28;20190;-50
2023/01/25 02:28:12;;;;;;;5.63;4.63;;;;;;;;;;5008554;28;20517;-49
2023/01/25 02:30:38;;;;;;;6.40;4.93;;;;;;;;;;4994602;28;20216;-50
2023/01/25 02:33:04;;;;;;;5.82;4.90;;;;;;;;;;5016393;28;20196;-49
2023/01/25 02:35:50;;;;;;;7.10;5.05;;;;;;;;;;5010837;28;20235;-49
2023/01/25 02:38:17;;;;;;;5.40;4.55;;;;;;;;;;5015586;28;20243;-49
2023/01/25 02:41:02;;;;;;;6.10;4.43;;;;;;;;;;5016082;28;20192;-49
2023/01/25 02:43:29;;;;;;;6.00;4.95;;;;;;;;;;5013463;28;20276;-49
2023/01/25 02:45:59;;;;;;;6.13;5.10;;;;;;;;;;5013848;28;20250;-49
2023/01/25 02:48:25;;;;;;;6.55;4.93;;;;;;;;;;5009527;28;20219;-49
2023/01/25 02:50:51;;;;;;;5.38;4.57;;;;;;;;;;5012244;28;20209;-49
2023/01/25 02:53:17;;;;;;;6.85;5.10;;;;;;;;;;5014659;28;20563;-49
2023/01/25 02:55:43;;;;;;;6.70;4.88;;;;;;;;;;5012839;28;20187;-50
2023/01/25 02:58:09;;;;;;;6.15;4.43;;;;;;;;;;5016418;28;20226;-49
2023/01/25 03:00:35;;;;;;;5.50;4.55;;;;;;;;;;5016990;28;20231;-49
2023/01/25 03:03:01;;;;;;;6.20;4.30;;;;;;;;;;5012621;28;20189;-49
2023/01/25 03:05:27;;;;;;;5.97;4.30;;;;;;;;;;5015965;28;20691;-49
2023/01/25 03:07:52;;;;;;;5.95;4.60;;;;;;;;;;5017585;28;20181;-49
2023/01/25 03:10:18;;;;;;;6.95;4.60;;;;;;;;;;5008200;28;20296;-49
2023/01/25 03:12:44;;;;;;;6.55;4.97;;;;;;;;;;5008948;28;20212;-49
2023/01/25 03:15:10;;;;;;;5.60;4.32;;;;;;;;;;5009813;28;20231;-49
2023/01/25 03:17:36;;;;;;;5.63;4.05;;;;;;;;;;5007235;28;20195;-49
2023/01/25 03:20:02;;;;;;;6.22;4.65;;;;;;;;;;5007731;28;20464;-49
2023/01/25 03:22:28;;;;;;;6.88;4.53;;;;;;;;;;5011190;28;20238;-49
2023/01/25 03:24:56;;;;;;;4.95;4.05;;;;;;;;;;5013831;28;20207;-49
2023/01/25 03:27:21;;;;;;;5.10;4.25;;;;;;;;;;5016630;28;20196;-49
2023/01/25 03:29:47;;;;;;;5.18;4.00;;;;;;;;;;5017676;28;20284;-49
2023/01/25 03:32:13;;;;;;;6.10;4.60;;;;;;;;;;5016800;28;20204;-49
2023/01/25 03:34:39;;;;;;;6.03;4.60;;;;;;;;;;5012337;28;20218;-49
2023/01/25 03:37:05;;;;;;;4.88;4.30;;;;;;;;;;5006114;28;20523;-49
2023/01/25 03:39:31;;;;;;;5.18;4.32;;;;;;;;;;5016067;28;20179;-49
2023/01/25 03:41:57;;;;;;;5.93;4.45;;;;;;;;;;5016063;28;20195;-49
2023/01/25 03:44:23;;;;;;;4.80;3.88;;;;;;;;;;5008364;28;20209;-49
2023/01/25 03:46:49;;;;;;;6.13;4.40;;;;;;;;;;5011540;28;20246;-49
2023/01/25 03:49:15;;;;;;;4.72;4.10;;;;;;;;;;5016638;28;20538;-50
2023/01/25 03:51:41;;;;;;;5.18;3.80;;;;;;;;;;5014229;28;20616;-49
2023/01/25 03:54:08;;;;;;;5.55;4.10;;;;;;;;;;5014336;28;20448;-49
2023/01/25 03:56:34;;;;;;;5.15;4.30;;;;;;;;;;5016833;28;20172;-49
2023/01/25 03:59:00;;;;;;;5.40;4.05;;;;;;;;;;5016602;28;20263;-49
2023/01/25 04:01:26;;;;;;;6.90;4.63;;;;;;;;;;5009388;28;20180;-49
2023/01/25 04:03:52;;;;;;;5.70;4.18;;;;;;;;;;5014611;28;20212;-49
2023/01/25 04:06:18;;;;;;;4.78;3.90;;;;;;;;;;5007095;28;20181;-49
2023/01/25 04:08:44;;;;;;;5.60;3.58;;;;;;;;;;5015183;28;20188;-49
2023/01/25 04:11:10;;;;;;;5.80;4.20;;;;;;;;;;5015203;28;20258;-49
2023/01/25 04:13:36;;;;;;;4.47;3.90;;;;;;;;;;5013484;28;20274;-49
2023/01/25 04:16:06;;;;;;;5.15;3.95;;;;;;;;;;5012069;28;20511;-49
2023/01/25 04:18:32;;;;;;;4.30;3.83;;;;;;;;;;5009785;28;20177;-49
2023/01/25 04:20:58;;;;;;;5.55;4.25;;;;;;;;;;5009496;28;20227;-49
2023/01/25 04:23:25;;;;;;;4.35;3.45;;;;;;;;;;5014553;28;20193;-49
2023/01/25 04:25:52;;;;;;;5.45;4.07;;;;;;;;;;5008943;28;20611;-49
2023/01/25 04:28:18;;;;;;;4.88;3.67;;;;;;;;;;5010977;28;20192;-48
2023/01/25 04:30:43;;;;;;;5.22;3.90;;;;;;;;;;5016057;28;20231;-49
2023/01/25 04:33:10;;;;;;;6.10;4.07;;;;;;;;;;5015887;28;20184;-49
2023/01/25 04:35:36;;;;;;;4.93;3.90;;;;;;;;;;5014301;28;20215;-49
2023/01/25 04:38:02;;;;;;;4.95;3.92;;;;;;;;;;5015451;28;20176;-49
2023/01/25 04:40:28;;;;;;;4.55;3.75;;;;;;;;;;5014686;28;20240;-49
2023/01/25 04:42:54;;;;;;;4.97;4.10;;;;;;;;;;5006526;28;20184;-49
2023/01/25 04:45:20;;;;;;;5.80;4.47;;;;;;;;;;5002056;28;20207;-49
2023/01/25 04:47:46;;;;;;;4.72;3.78;;;;;;;;;;5010340;28;20204;-49
2023/01/25 04:50:12;;;;;;;4.88;3.47;;;;;;;;;;5010628;28;20610;-49
2023/01/25 04:52:38;;;;;;;4.55;3.78;;;;;;;;;;5005594;28;20193;-49
2023/01/25 04:55:04;;;;;;;4.88;3.90;;;;;;;;;;5013817;28;20344;-49
2023/01/25 04:57:30;;;;;;;6.07;4.15;;;;;;;;;;5007652;28;20428;-49
2023/01/25 04:59:56;;;;;;;6.13;3.72;;;;;;;;;;5011037;28;20204;-49
2023/01/25 05:02:21;;;;;;;5.57;3.78;;;;;;;;;;5006946;28;20185;-49
2023/01/25 05:04:47;;;;;;;5.80;3.80;;;;;;;;;;5009577;28;20229;-49
2023/01/25 05:07:13;;;;;;;4.15;3.67;;;;;;;;;;5015661;28;20208;-49
2023/01/25 05:09:39;;;;;;;7.53;3.70;;;;;;;;;;5013098;28;20564;-49
2023/01/25 05:12:10;;;;;;;7.20;3.70;;;;;;;;;;5014156;28;20237;-48
2023/01/25 05:14:36;;;;;;;9.38;4.15;;;;;;;;;;5003976;28;20248;-48
2023/01/25 05:17:02;;;;;;;6.68;3.90;;;;;;;;;;5004312;28;20189;-49
2023/01/25 05:19:28;;;;;;;7.72;3.95;;;;;;;;;;5004330;28;20275;-49
2023/01/25 05:21:57;;;;;;;10.85;4.30;;;;;;;;;;5009026;28;20373;-49
2023/01/25 05:24:23;;;;;;;6.93;3.88;;;;;;;;;;5012919;28;20250;-49
2023/01/25 05:27:04;;;;;;;6.03;3.90;;;;;;;;;;5014889;28;20220;-49
2023/01/25 05:29:31;;;;;;;10.70;4.10;;;;;;;;;;5015356;28;20183;-49
2023/01/25 05:31:58;;;;;;;6.97;3.63;;;;;;;;;;5014961;28;20192;-49
2023/01/25 05:34:25;;;;;;;13.18;4.13;;;;;;;;;;5008339;28;20180;-49
2023/01/25 05:36:50;;;;;;;9.27;4.38;;;;;;;;;;5012287;28;20206;-49
2023/01/25 05:39:16;;;;;;;8.52;4.20;;;;;;;;;;5015372;28;20551;-48
2023/01/25 05:41:42;;;;;;;6.00;4.18;;;;;;;;;;5015129;28;20181;-49
2023/01/25 05:44:08;;;;;;;6.85;3.72;;;;;;;;;;5003563;28;20193;-49
2023/01/25 05:46:34;;;;;;;6.85;3.90;;;;;;;;;;5013047;28;20191;-49
2023/01/25 05:49:00;;;;;;;8.52;3.85;;;;;;;;;;5013365;28;20250;-49
2023/01/25 05:51:26;;;;;;;5.25;3.88;;;;;;;;;;5012882;28;20200;-49
2023/01/25 05:53:55;;;;;;;5.03;3.67;;;;;;;;;;5012549;28;20271;-49
2023/01/25 05:56:21;;;;;;;8.27;3.90;;;;;;;;;;5014044;28;20270;-49
2023/01/25 05:58:47;;;;;;;6.35;4.28;;;;;;;;;;5013476;28;20180;-49
2023/01/25 06:01:13;;;;;;;7.35;4.18;;;;;;;;;;5008789;28;20191;-50
2023/01/25 06:03:39;;;;;;;6.15;3.63;;;;;;;;;;5008964;28;20189;-49
2023/01/25 06:06:05;;;;;;;6.68;3.90;;;;;;;;;;5011456;28;20196;-49
2023/01/25 06:08:31;;;;;;;6.82;4.05;;;;;;;;;;5010934;28;20188;-49
2023/01/25 06:10:57;;;;;;;6.82;4.07;;;;;;;;;;5010521;28;20211;-49
2023/01/25 06:13:24;;;;;;;5.07;3.55;;;;;;;;;;5008395;28;20189;-49
2023/01/25 06:15:53;;;;;;;5.55;4.07;;;;;;;;;;5004124;28;20183;-49
2023/01/25 06:18:19;;;;;;;5.88;3.97;;;;;;;;;;5005201;28;20496;-49
2023/01/25 06:20:45;;;;;;;5.47;3.80;;;;;;;;;;5006155;28;20199;-49
2023/01/25 06:23:11;;;;;;;4.55;3.83;;;;;;;;;;5014102;28;20192;-49
2023/01/25 06:25:37;;;;;;;5.90;3.80;;;;;;;;;;5009918;28;20208;-49
2023/01/25 06:28:03;;;;;;;7.88;3.58;;;;;;;;;;5013303;28;20223;-49
2023/01/25 06:30:29;;;;;;;6.18;3.67;;;;;;;;;;5010015;28;20216;-49
2023/01/25 06:32:57;;;;;;;6.50;3.67;;;;;;;;;;5009285;28;20466;-49
2023/01/25 06:35:23;;;;;;;6.82;3.95;;;;;;;;;;5012402;28;20243;-49
2023/01/25 06:37:49;;;;;;;5.18;4.10;;;;;;;;;;5010644;28;20571;-49
2023/01/25 06:40:15;;;;;;;8.07;4.07;;;;;;;;;;5010896;28;20192;-49
2023/01/25 06:42:42;;;;;;;5.97;3.13;;;;;;;;;;5006402;28;20530;-49
2023/01/25 06:45:08;;;;;;;6.20;3.72;;;;;;;;;;5007966;28;20276;-49
2023/01/25 06:47:34;;;;;;;6.50;3.60;;;;;;;;;;5009532;28;20247;-49
2023/01/25 06:50:00;;;;;;;5.07;3.80;;;;;;;;;;5012741;28;20216;-49
2023/01/25 06:52:26;;;;;;;4.57;3.45;;;;;;;;;;5013046;28;20533;-49
2023/01/25 06:54:52;;;;;;;4.57;3.72;;;;;;;;;;5013511;28;20176;-49
2023/01/25 06:57:17;;;;;;;6.32;3.75;;;;;;;;;;5012435;28;20587;-49
2023/01/25 06:59:43;;;;;;;5.75;3.38;;;;;;;;;;5010215;28;20185;-49
2023/01/25 07:02:15;;;;;;;4.93;3.35;;;;;;;;;;5009398;28;20199;-49
2023/01/25 07:04:41;;;;;;;5.22;3.53;;;;;;;;;;5005726;28;20277;-49
2023/01/25 07:07:08;;;;;;;5.35;3.53;;;;;;;;;;5013268;28;20256;-49
2023/01/25 07:09:34;;;;;;;5.13;3.58;;;;;;;;;;5012293;28;20436;-48
2023/01/25 07:12:01;;;;;;;5.55;3.80;;;;;;;;;;5014131;28;20188;-49
2023/01/25 07:14:27;;;;;;;5.43;3.60;;;;;;;;;;5003201;28;20189;-48
2023/01/25 07:16:52;;;;;;;4.97;3.50;;;;;;;;;;5009040;28;20192;-48
2023/01/25 07:19:18;;;;;;;4.93;3.47;;;;;;;;;;5013369;28;20381;-48
2023/01/25 07:21:45;;;;;;;4.45;3.25;;;;;;;;;;5006966;28;20192;-49
2023/01/25 07:24:13;;;;;;;8.35;4.30;;;;;;;;;;5010823;28;20426;-49
2023/01/25 07:26:39;;;;;;;5.50;3.42;;;;;;;;;;5015674;28;20246;-49
2023/01/25 07:29:05;;;;;;;5.20;3.45;;;;;;;;;;5016154;28;20462;-49
2023/01/25 07:31:31;;;;;;;4.55;3.38;;;;;;;;;;5016956;28;20234;-49
2023/01/25 07:33:57;;;;;;;4.40;3.50;;;;;;;;;;5016780;28;20194;-49
2023/01/25 07:36:24;;;;;;;5.10;3.40;;;;;;;;;;5017089;28;20187;-49
2023/01/25 07:38:54;;;;;;;6.80;3.95;;;;;;;;;;5017226;28;20180;-49
2023/01/25 07:41:20;;;;;;;5.43;3.42;;;;;;;;;;5009421;28;20195;-49
2023/01/25 07:43:46;;;;;;;3.90;3.50;;;;;;;;;;5016875;28;20180;-49
2023/01/25 07:46:14;;;;;;;5.03;3.50;;;;;;;;;;5016477;28;20189;-49
2023/01/25 07:48:40;;;;;;;5.03;3.53;;;;;;;;;;5016440;28;20593;-49
2023/01/25 07:51:10;;;;;;;4.60;3.40;;;;;;;;;;5006495;28;20217;-49
2023/01/25 07:53:46;;;;;;;3.58;3.10;;;;;;;;;;5015803;28;20219;-49
2023/01/25 07:56:12;;;;;;;4.18;3.33;;;;;;;;;;5015922;28;20230;-49
2023/01/25 07:58:38;;;;;;;4.53;3.40;;;;;;;;;;5013959;28;20181;-49
2023/01/25 08:01:06;;;;;;;4.65;3.28;;;;;;;;;;5015262;28;20184;-49
2023/01/25 08:03:32;;;;;;;4.57;3.72;;;;;;;;;;5015330;28;20189;-48
2023/01/25 08:05:58;;;;;;;4.47;3.00;;;;;;;;;;5018159;28;20195;-48
2023/01/25 08:08:24;;;;;;;5.28;3.47;;;;;;;;;;5015833;28;20467;-49
2023/01/25 08:10:50;;;;;;;4.45;3.45;;;;;;;;;;5001658;28;20216;-48
2023/01/25 08:13:16;;;;;;;3.28;2.97;;;;;;;;;;5008993;28;20559;-49
2023/01/25 08:15:42;;;;;;;3.97;3.28;;;;;;;;;;5016132;28;20259;-49
2023/01/25 08:18:08;;;;;;;3.83;2.90;;;;;;;;;;5014830;28;20180;-49
2023/01/25 08:20:34;;;;;;;3.65;2.97;;;;;;;;;;5012539;28;20193;-49
2023/01/25 08:23:00;;;;;;;3.65;2.90;;;;;;;;;;5016369;28;20777;-48
2023/01/25 08:25:26;;;;;;;3.50;3.17;;;;;;;;;;5013611;28;20298;-49
2023/01/25 08:27:52;;;;;;;4.43;3.47;;;;;;;;;;5015308;28;20196;-49
2023/01/25 08:30:18;;;;;;;3.78;3.05;;;;;;;;;;5013476;28;20227;-48
2023/01/25 08:32:44;;;;;;;3.72;2.92;;;;;;;;;;5011357;28;20181;-48
2023/01/25 08:35:10;;;;;;;4.47;3.47;;;;;;;;;;5015534;28;20876;-48
2023/01/25 08:37:36;;;;;;;4.22;3.22;;;;;;;;;;5008566;28;20185;-48
2023/01/25 08:40:02;;;;;;;4.05;3.10;;;;;;;;;;5009688;28;20447;-48
2023/01/25 08:42:28;;;;;;;4.10;2.97;;;;;;;;;;5005512;28;20196;-48
2023/01/25 08:44:54;;;;;;;3.40;3.10;;;;;;;;;;5015087;28;20176;-48
2023/01/25 08:47:20;;;;;;;4.45;3.08;;;;;;;;;;5010177;28;20575;-48
2023/01/25 08:49:46;;;;;;;4.10;3.05;;;;;;;;;;5014977;28;20563;-49
2023/01/25 08:52:13;;;;;;;4.75;3.20;;;;;;;;;;5007279;28;20188;-49
2023/01/25 08:54:42;;;;;;;4.72;2.80;;;;;;;;;;5013833;28;20231;-49
2023/01/25 08:57:08;;;;;;;3.58;2.88;;;;;;;;;;5010622;28;20203;-49
2023/01/25 08:59:34;;;;;;;3.53;3.10;;;;;;;;;;5015599;28;20180;-49
2023/01/25 09:02:00;;;;;;;2.80;2.50;;;;;;;;;;5015764;28;20628;-50
2023/01/25 09:04:27;;;;;;;4.40;3.10;;;;;;;;;;5014915;28;20208;-49
2023/01/25 09:06:54;;;;;;;3.35;2.65;;;;;;;;;;5013087;28;20552;-49
2023/01/25 09:09:21;;;;;;;3.60;3.00;;;;;;;;;;5016069;28;20220;-49
2023/01/25 09:11:47;;;;;;;3.50;2.75;;;;;;;;;;5015112;28;20220;-49
2023/01/25 09:14:13;;;;;;;3.20;2.90;;;;;;;;;;5015763;28;20202;-49
2023/01/25 09:16:39;;;;;;;3.03;2.65;;;;;;;;;;5015727;28;20666;-49
2023/01/25 09:19:05;;;;;;;3.30;3.00;;;;;;;;;;5015283;28;20189;-49
2023/01/25 09:21:32;;;;;;;3.08;2.63;;;;;;;;;;5007610;28;20219;-49
2023/01/25 09:23:58;;;;;;;3.72;3.15;;;;;;;;;;5015068;28;20192;-50
2023/01/25 09:26:24;;;;;;;3.17;2.83;;;;;;;;;;5015352;28;20586;-49
2023/01/25 09:28:51;;;;;;;2.65;2.42;;;;;;;;;;5014553;28;20185;-50
2023/01/25 09:31:17;;;;;;;3.75;3.05;;;;;;;;;;5011203;28;20201;-50
2023/01/25 09:33:43;;;;;;;3.60;2.72;;;;;;;;;;5014454;28;20177;-49
2023/01/25 09:36:09;;;;;;;3.50;3.00;;;;;;;;;;5009868;28;20264;-49
2023/01/25 09:38:36;;;;;;;3.63;2.78;;;;;;;;;;5011868;28;20184;-49
2023/01/25 09:41:17;;;;;;;3.88;2.95;;;;;;;;;;5011163;28;20188;-49
2023/01/25 09:43:43;;;;;;;3.47;3.03;;;;;;;;;;5014484;28;20192;-49
2023/01/25 09:46:17;;;;;;;3.20;2.88;;;;;;;;;;5010629;28;20189;-49
2023/01/25 09:48:48;;;;;;;3.40;2.80;;;;;;;;;;5008889;28;20238;-49
2023/01/25 09:51:14;;;;;;;3.30;3.00;;;;;;;;;;5014756;28;20468;-56
2023/01/25 09:53:50;;;;;;;2.88;2.58;;;;;;;;;;5009818;28;20220;-49
2023/01/25 09:56:28;;;;;;;3.22;2.70;;;;;;;;;;5010841;28;20195;-49
2023/01/25 09:58:57;;;;;;;3.63;3.08;;;;;;;;;;5009537;28;20188;-49
2023/01/25 10:01:45;;;;;;;3.42;2.70;;;;;;;;;;5005840;28;20196;-49
2023/01/25 10:04:23;;;;;;;3.47;2.90;;;;;;;;;;5005849;28;20192;-49
2023/01/25 10:06:51;;;;;;;2.85;2.45;;;;;;;;;;5005688;28;20442;-49
2023/01/25 10:09:36;;;;;;;4.35;3.17;;;;;;;;;;5015259;28;20259;-49
2023/01/25 10:12:15;;;;;;;3.25;2.95;;;;;;;;;;5006077;28;20243;-49
2023/01/25 10:14:41;;;;;;;2.53;2.33;;;;;;;;;;5014652;28;20184;-49
2023/01/25 10:17:16;;;;;;;3.03;2.70;;;;;;;;;;5012269;28;20446;-49
2023/01/25 10:20:03;;;;;;;4.45;3.00;;;;;;;;;;5008015;28;20215;-49
2023/01/25 10:22:32;;;;;;;2.60;2.40;;;;;;;;;;5007655;28;20467;-49
2023/01/25 10:25:18;;;;;;;3.80;2.78;;;;;;;;;;5014247;28;20181;-49
2023/01/25 10:27:48;;;;;;;3.33;2.75;;;;;;;;;;5010283;28;20220;-49
2023/01/25 10:30:25;;;;;;;3.65;3.05;;;;;;;;;;5012209;28;20551;-49
2023/01/25 10:32:51;;;;;;;3.05;2.45;;;;;;;;;;5013839;28;20451;-49
2023/01/25 10:35:20;;;;;;;2.92;2.53;;;;;;;;;;5013491;28;20185;-49
2023/01/25 10:37:46;;;;;;;3.55;2.80;;;;;;;;;;5012050;28;20191;-49
2023/01/25 10:40:12;;;;;;;3.03;2.70;;;;;;;;;;5013496;28;20188;-49
2023/01/25 10:42:53;;;;;;;3.25;2.80;;;;;;;;;;5006173;28;20189;-49
2023/01/25 10:45:19;;;;;;;2.80;2.60;;;;;;;;;;5011996;28;20192;-49
2023/01/25 10:47:50;;;;;;;2.83;2.55;;;;;;;;;;5014172;28;20191;-50
2023/01/25 10:50:34;;;;;;;3.30;2.75;;;;;;;;;;5006843;28;20208;-48
2023/01/25 10:53:00;;;;;;;3.03;2.47;;;;;;;;;;5016965;28;20200;-49
2023/01/25 10:55:27;;;;;;;2.80;2.55;;;;;;;;;;5010737;28;20193;-50
2023/01/25 10:57:54;;;;;;;3.05;2.65;;;;;;;;;;5009352;28;20189;-49
2023/01/25 11:00:35;;;;;;;3.10;2.80;;;;;;;;;;5008045;28;20514;-49
2023/01/25 11:03:02;;;;;;;2.83;2.53;;;;;;;;;;5010542;28;20192;-49
2023/01/25 11:05:29;;;;;;;3.08;2.55;;;;;;;;;;5015724;28;20212;-49
2023/01/25 11:07:56;;;;;;;2.88;2.50;;;;;;;;;;5014025;28;20195;-49
2023/01/25 11:10:35;;;;;;;3.15;2.65;;;;;;;;;;5015457;28;20690;-49
2023/01/25 11:13:18;;;;;;;3.35;2.88;;;;;;;;;;5017955;28;20212;-50
2023/01/25 11:15:54;;;;;;;3.40;3.00;;;;;;;;;;5013615;28;20218;-49
2023/01/25 11:18:27;;;;;;;3.08;2.78;;;;;;;;;;5014359;28;20184;-49
2023/01/25 11:21:04;;;;;;;3.10;2.65;;;;;;;;;;5010984;28;20572;-49
2023/01/25 11:23:33;;;;;;;2.83;2.53;;;;;;;;;;5001025;28;20191;-49
2023/01/25 11:26:18;;;;;;;2.97;2.55;;;;;;;;;;5008927;28;20231;-49
2023/01/25 11:28:47;;;;;;;2.90;2.58;;;;;;;;;;5009668;28;20198;-49
2023/01/25 11:31:15;;;;;;;2.95;2.50;;;;;;;;;;5009932;28;20262;-49
2023/01/25 11:33:41;;;;;;;3.58;2.90;;;;;;;;;;5007631;28;20181;-49
2023/01/25 11:36:25;;;;;;;2.75;2.45;;;;;;;;;;5007752;28;20196;-49
2023/01/25 11:39:11;;;;;;;3.50;2.72;;;;;;;;;;5001569;28;20237;-49
2023/01/25 11:41:42;;;;;;;3.65;2.65;;;;;;;;;;5017522;28;20189;-49
2023/01/25 11:44:40;;;;;;;3.08;2.58;;;;;;;;;;5017336;28;20223;-49
2023/01/25 11:47:23;;;;;;;3.35;3.00;;;;;;;;;;5011483;28;20181;-49
2023/01/25 11:49:57;;;;;;;2.90;2.60;;;;;;;;;;5016570;28;20241;-49
2023/01/25 11:52:29;;;;;;;3.08;2.78;;;;;;;;;;5016186;28;20463;-49
2023/01/25 11:55:00;;;;;;;3.35;2.70;;;;;;;;;;5006230;28;20405;-49
2023/01/25 11:57:45;;;;;;;3.13;2.70;;;;;;;;;;5014525;28;20491;-49
2023/01/25 12:00:35;;;;;;;3.92;2.75;;;;;;;;;;5009914;28;20195;-49
2023/01/25 12:03:19;;;;;;;3.28;2.40;;;;;;;;;;5006889;28;20193;-49
2023/01/25 12:05:47;;;;;;;3.53;2.75;;;;;;;;;;5016235;28;20314;-49
2023/01/25 12:08:34;;;;;;;3.00;2.67;;;;;;;;;;5013916;28;20208;-49
2023/01/25 12:11:06;;;;;;;3.33;2.67;;;;;;;;;;5003619;28;20219;-49
2023/01/25 12:13:34;;;;;;;3.08;2.63;;;;;;;;;;5014605;28;20554;-49
2023/01/25 12:16:27;;;;;;;3.95;3.10;;;;;;;;;;5010785;28;20184;-49
2023/01/25 12:18:55;;;;;;;3.22;2.78;;;;;;;;;;4999640;28;20599;-49
2023/01/25 12:21:22;;;;;;;3.75;2.72;;;;;;;;;;5012587;28;20183;-49
2023/01/25 12:24:00;;;;;;;3.67;2.50;;;;;;;;;;5013618;28;20184;-49
2023/01/25 12:26:29;;;;;;;4.20;2.92;;;;;;;;;;5006722;28;20496;-49
2023/01/25 12:28:59;;;;;;;4.13;2.83;;;;;;;;;;5013286;28;20227;-49
2023/01/25 12:31:44;;;;;;;3.17;2.85;;;;;;;;;;5011628;28;20564;-49
2023/01/25 12:34:14;;;;;;;8.45;2.75;;;;;;;;;;5008443;28;20173;-49
2023/01/25 12:36:43;;;;;;;3.67;2.95;;;;;;;;;;5016595;28;20181;-49
2023/01/25 12:39:29;;;;;;;5.63;3.30;;;;;;;;;;5010224;28;20181;-49
2023/01/25 12:41:58;;;;;;;3.63;3.03;;;;;;;;;;5015080;28;20229;-49
2023/01/25 12:44:36;;;;;;;4.47;2.58;;;;;;;;;;5016282;28;20259;-49
2023/01/25 12:47:20;;;;;;;4.72;2.85;;;;;;;;;;5016228;28;20618;-49
2023/01/25 12:49:50;;;;;;;4.45;3.00;;;;;;;;;;5016350;28;20223;-49
2023/01/25 12:52:31;;;;;;;4.50;3.30;;;;;;;;;;5015468;28;20215;-49
2023/01/25 12:55:00;;;;;;;5.15;3.58;;;;;;;;;;5007983;28;20437;-49
2023/01/25 12:57:35;;;;;;;3.80;2.75;;;;;;;;;;5010584;28;20541;-49
2023/01/25 13:00:08;;;;;;;4.53;3.20;;;;;;;;;;5005009;28;20188;-49
2023/01/25 13:03:00;;;;;;;6.93;3.10;;;;;;;;;;5012674;28;20433;-49
2023/01/25 13:05:36;;;;;;;4.53;3.00;;;;;;;;;;5012042;28;20185;-49
2023/01/25 13:08:23;;;;;;;5.75;3.00;;;;;;;;;;5008574;28;20295;-49
2023/01/25 13:10:52;;;;;;;6.13;3.03;;;;;;;;;;5015729;28;20204;-50
2023/01/25 13:13:25;;;;;;;6.22;3.08;;;;;;;;;;5009870;28;20560;-49
2023/01/25 13:15:52;;;;;;;4.82;3.20;;;;;;;;;;5014285;28;20181;-49
2023/01/25 13:18:34;;;;;;;3.65;2.83;;;;;;;;;;5013874;28;20192;-49
2023/01/25 13:21:07;;;;;;;3.58;3.17;;;;;;;;;;5012023;28;20203;-49
2023/01/25 13:23:42;;;;;;;5.43;3.42;;;;;;;;;;5015561;28;20196;-49
2023/01/25 13:26:31;;;;;;;5.20;2.90;;;;;;;;;;5010396;28;20212;-49
2023/01/25 13:28:59;;;;;;;5.13;3.08;;;;;;;;;;5007265;28;20238;-49
2023/01/25 13:31:37;;;;;;;3.60;3.08;;;;;;;;;;5014482;28;20649;-49
2023/01/25 13:34:04;;;;;;;3.97;3.03;;;;;;;;;;5014344;28;20181;-49
2023/01/25 13:36:39;;;;;;;4.13;2.97;;;;;;;;;;5014782;28;20172;-49
2023/01/25 13:39:24;;;;;;;8.90;3.17;;;;;;;;;;5015215;28;20194;-49
2023/01/25 13:42:08;;;;;;;5.32;3.63;;;;;;;;;;5003909;28;20455;-49
2023/01/25 13:44:35;;;;;;;4.85;3.00;;;;;;;;;;5008161;28;20533;-49
2023/01/25 13:47:03;;;;;;;3.60;3.00;;;;;;;;;;5011476;28;20230;-49
2023/01/25 13:49:43;;;;;;;4.95;3.22;;;;;;;;;;5017046;28;20189;-49
2023/01/25 13:52:16;;;;;;;4.05;3.40;;;;;;;;;;5003762;28;20230;-49
2023/01/25 13:54:43;;;;;;;10.48;3.20;;;;;;;;;;5013987;28;20211;-49
2023/01/25 13:57:13;;;;;;;5.43;3.13;;;;;;;;;;5014828;28;20571;-49
2023/01/25 13:59:39;;;;;;;6.03;3.45;;;;;;;;;;5012969;28;20184;-49
2023/01/25 14:02:22;;;;;;;5.28;2.85;;;;;;;;;;5013972;28;20610;-49
2023/01/25 14:04:49;;;;;;;4.88;3.10;;;;;;;;;;5013979;28;20820;-49
2023/01/25 14:07:17;;;;;;;4.75;3.47;;;;;;;;;;5014541;28;20615;-49
2023/01/25 14:09:43;;;;;;;4.45;3.30;;;;;;;;;;5015101;28;20184;-49
2023/01/25 14:12:10;;;;;;;6.32;3.35;;;;;;;;;;5012765;28;20281;-49
2023/01/25 14:14:36;;;;;;;4.15;3.38;;;;;;;;;;5006504;28;20556;-50
2023/01/25 14:17:19;;;;;;;4.80;3.42;;;;;;;;;;4995516;28;20260;-49
2023/01/25 14:19:55;;;;;;;6.90;3.70;;;;;;;;;;5008527;28;20242;-49
2023/01/25 14:22:21;;;;;;;4.47;3.47;;;;;;;;;;5013678;28;20616;-49
2023/01/25 14:25:08;;;;;;;4.15;3.38;;;;;;;;;;5013001;28;20185;-49
2023/01/25 14:27:35;;;;;;;5.68;3.33;;;;;;;;;;5013212;28;20188;-49
2023/01/25 14:30:02;;;;;;;4.07;2.90;;;;;;;;;;5015806;28;20560;-49
2023/01/25 14:32:28;;;;;;;3.97;3.58;;;;;;;;;;5007145;28;20184;-49
2023/01/25 14:34:54;;;;;;;6.75;3.72;;;;;;;;;;5006257;28;20208;-49
2023/01/25 14:37:21;;;;;;;4.10;3.35;;;;;;;;;;5007349;28;20183;-49
2023/01/25 14:39:48;;;;;;;4.78;3.90;;;;;;;;;;5005735;28;20176;-49
2023/01/25 14:42:15;;;;;;;7.35;3.50;;;;;;;;;;5007150;28;20612;-49
2023/01/25 14:44:41;;;;;;;6.60;3.33;;;;;;;;;;5009833;28;20185;-48
2023/01/25 14:47:21;;;;;;;10.23;3.30;;;;;;;;;;5016393;28;20238;-48
2023/01/25 14:49:47;;;;;;;10.20;3.85;;;;;;;;;;5016758;28;20215;-48
2023/01/25 14:52:15;;;;;;;5.78;3.33;;;;;;;;;;5011781;28;20204;-48
2023/01/25 14:54:47;;;;;;;6.15;3.53;;;;;;;;;;5004813;28;20187;-48